createdAt,value
2019-02-19T00:04:32.154Z,33.13
2019-02-19T00:09:28.285Z,32.23
2019-02-19T00:14:26.754Z,31.40
2019-02-19T00:19:22.763Z,31.80
2019-02-19T00:24:18.835Z,31.27
2019-02-19T00:29:14.991Z,26.17
2019-02-19T00:34:11.031Z,24.33
2019-02-19T00:39:07.264Z,28.23
2019-02-19T00:44:03.262Z,28.70
2019-02-19T00:48:59.583Z,27.43
2019-02-19T00:53:55.901Z,26.43
2019-02-19T00:58:52.553Z,25.03
2019-02-19T01:03:48.599Z,22.73
2019-02-19T01:08:47.579Z,22.23
2019-02-19T01:13:52.763Z,25.37
2019-02-19T01:18:49.001Z,26.30
2019-02-19T01:23:44.890Z,25.60
2019-02-19T01:28:41.174Z,28.17
2019-02-19T01:33:37.221Z,25.30
2019-02-19T01:38:33.856Z,25.67
2019-02-19T01:43:30.281Z,26.77
2019-02-19T01:48:26.427Z,23.63
2019-02-19T01:53:22.382Z,28.93
2019-02-19T01:58:18.275Z,27.37
2019-02-19T02:03:15.658Z,26.30
2019-02-19T02:08:11.805Z,24.10
2019-02-19T02:13:08.193Z,26.50
2019-02-19T02:18:04.473Z,24.60
2019-02-19T02:23:00.265Z,21.67
2019-02-19T02:27:56.411Z,25.27
2019-02-19T02:32:52.486Z,26.40
2019-02-19T02:37:48.663Z,25.63
2019-02-19T02:42:44.659Z,24.13
2019-02-19T02:47:40.901Z,21.70
2019-02-19T02:52:37.117Z,26.43
2019-02-19T02:57:33.068Z,27.33
2019-02-19T03:02:29.494Z,26.10
2019-02-19T03:07:33.413Z,24.90
2019-02-19T03:12:32.763Z,22.97
2019-02-19T03:17:28.501Z,21.50
2019-02-19T03:22:24.348Z,19.70
2019-02-19T03:27:20.208Z,24.37
2019-02-19T03:32:15.956Z,21.03
2019-02-19T03:37:11.729Z,23.03
2019-02-19T03:42:07.487Z,21.33
2019-02-19T03:47:03.384Z,23.37
2019-02-19T03:51:59.201Z,20.60
2019-02-19T03:56:54.958Z,20.97
2019-02-19T04:01:50.941Z,22.00
2019-02-19T04:06:46.694Z,19.63
2019-02-19T04:11:42.415Z,19.60
2019-02-19T04:16:38.483Z,22.83
2019-02-19T04:21:35.244Z,21.90
2019-02-19T04:26:31.434Z,24.93
2019-02-19T04:31:27.107Z,20.20
2019-02-19T04:36:22.843Z,19.27
2019-02-19T04:41:18.583Z,21.93
2019-02-19T04:46:14.635Z,20.07
2019-02-19T04:51:11.393Z,15.97
2019-02-19T04:56:07.140Z,16.73
2019-02-19T05:01:02.962Z,16.50
2019-02-19T05:05:58.718Z,17.63
2019-02-19T05:10:54.796Z,23.20
2019-02-19T05:15:53.950Z,18.33
2019-02-19T05:20:49.743Z,19.03
2019-02-19T05:25:47.004Z,19.30
2019-02-19T05:30:46.252Z,17.87
2019-02-19T05:35:42.048Z,21.13
2019-02-19T05:40:37.834Z,18.27
2019-02-19T05:45:33.591Z,21.00
2019-02-19T05:50:29.313Z,19.67
2019-02-19T05:55:28.055Z,18.07
2019-02-19T06:00:23.747Z,20.57
2019-02-19T06:05:19.486Z,20.67
2019-02-19T06:10:15.206Z,28.30
2019-02-19T06:15:12.675Z,21.33
2019-02-19T06:20:09.122Z,22.37
2019-02-19T06:25:05.174Z,39.40
2019-02-19T06:30:01.150Z,28.17
2019-02-19T06:34:56.925Z,23.53
2019-02-19T06:40:11.626Z,23.23
2019-02-19T06:45:09.596Z,27.90
2019-02-19T06:50:15.096Z,31.67
2019-02-19T06:55:28.831Z,21.87
2019-02-19T07:00:25.805Z,25.43
2019-02-19T07:05:35.554Z,23.93
2019-02-19T07:10:33.596Z,25.77
2019-02-19T07:15:29.371Z,22.77
2019-02-19T07:20:25.204Z,24.00
2019-02-19T07:25:21.256Z,77.37
2019-02-19T07:30:17.015Z,42.50
2019-02-19T07:35:12.922Z,44.17
2019-02-19T07:40:08.958Z,66.07
2019-02-19T07:45:04.905Z,67.43
2019-02-19T07:50:00.833Z,39.93
2019-02-19T07:54:57.562Z,42.87
2019-02-19T07:59:56.937Z,49.93
2019-02-19T08:04:55.922Z,37.33
2019-02-19T08:09:51.761Z,40.90
2019-02-19T08:14:47.499Z,32.93
2019-02-19T08:19:43.360Z,26.53
2019-02-19T08:24:39.134Z,27.07
2019-02-19T08:29:35.129Z,28.10
2019-02-19T08:34:30.881Z,29.07
2019-02-19T08:39:26.599Z,27.87
2019-02-19T08:44:22.354Z,21.37
2019-02-19T08:49:18.415Z,20.07
2019-02-19T08:54:14.199Z,21.20
2019-02-19T08:59:10.051Z,16.30
2019-02-19T09:04:08.488Z,19.50
2019-02-19T09:09:05.876Z,28.17
2019-02-19T09:14:01.588Z,20.73
2019-02-19T09:18:57.408Z,25.70
2019-02-19T09:23:53.180Z,16.00
2019-02-19T09:28:50.027Z,20.03
2019-02-19T09:33:45.835Z,19.87
2019-02-19T09:38:41.795Z,14.77
2019-02-19T09:43:37.689Z,17.53
2019-02-19T09:48:33.495Z,14.83
2019-02-19T09:53:29.291Z,19.43
2019-02-19T09:58:25.177Z,15.47
2019-02-19T10:03:21.285Z,9.67
2019-02-19T10:08:18.140Z,7.73
2019-02-19T10:13:13.965Z,10.93
2019-02-19T10:18:10.556Z,9.47
2019-02-19T10:23:09.222Z,9.70
2019-02-19T10:28:05.308Z,9.63
2019-02-19T10:33:01.138Z,8.77
2019-02-19T10:37:57.040Z,11.57
2019-02-19T10:42:52.918Z,7.63
2019-02-19T10:47:48.824Z,5.90
2019-02-19T10:52:45.979Z,9.77
2019-02-19T10:57:42.420Z,8.73
2019-02-19T11:02:38.212Z,11.30
2019-02-19T11:07:35.551Z,7.57
2019-02-19T11:12:31.334Z,8.90
2019-02-19T11:17:27.075Z,9.03
2019-02-19T11:22:22.970Z,10.47
2019-02-19T11:27:18.850Z,8.20
2019-02-19T11:32:14.680Z,8.43
2019-02-19T11:37:10.555Z,6.47
2019-02-19T11:42:06.293Z,9.07
2019-02-19T11:47:02.075Z,13.10
2019-02-19T11:52:00.518Z,8.57
2019-02-19T11:56:56.313Z,10.67
2019-02-19T12:01:52.416Z,10.97
2019-02-19T12:06:51.291Z,9.27
2019-02-19T12:11:47.100Z,12.83
2019-02-19T12:16:42.853Z,9.30
2019-02-19T12:21:39.717Z,9.00
2019-02-19T12:26:36.016Z,10.37
2019-02-19T12:31:31.874Z,10.90
2019-02-19T12:36:27.832Z,9.40
2019-02-19T12:41:23.552Z,9.43
2019-02-19T12:46:26.139Z,11.23
2019-02-19T12:51:26.422Z,10.83
2019-02-19T12:56:20.256Z,14.03
2019-02-19T13:01:16.142Z,11.33
2019-02-19T13:06:11.990Z,13.33
2019-02-19T13:11:07.768Z,9.70
2019-02-19T13:16:03.647Z,10.93
2019-02-19T13:20:59.463Z,9.93
2019-02-19T13:25:55.390Z,9.17
2019-02-19T13:30:51.151Z,8.30
2019-02-19T13:35:46.896Z,6.97
2019-02-19T13:40:42.621Z,11.70
2019-02-19T13:45:38.549Z,7.20
2019-02-19T13:50:34.494Z,10.33
2019-02-19T13:55:33.597Z,8.13
2019-02-19T14:00:31.021Z,7.47
2019-02-19T14:05:26.816Z,9.97
2019-02-19T14:10:22.539Z,9.43
2019-02-19T14:15:46.198Z,9.23
2019-02-19T14:21:09.662Z,8.97
2019-02-19T14:26:23.891Z,9.83
2019-02-19T14:31:50.671Z,7.60
2019-02-19T14:37:14.250Z,11.73
2019-02-19T14:42:28.974Z,10.50
2019-02-19T14:47:43.071Z,12.63
2019-02-19T14:52:54.478Z,10.40
2019-02-19T14:58:18.414Z,7.50
2019-02-19T15:03:42.638Z,7.73
2019-02-19T15:08:57.468Z,10.80
2019-02-19T15:14:17.880Z,8.13
2019-02-19T15:19:41.867Z,8.80
2019-02-19T15:25:05.861Z,19.90
2019-02-19T15:30:26.297Z,22.63
2019-02-19T15:35:34.421Z,11.33
2019-02-19T15:40:52.093Z,15.93
2019-02-19T15:46:24.153Z,17.07
2019-02-19T15:51:29.370Z,12.03
2019-02-19T15:56:33.292Z,9.03
2019-02-19T16:01:42.797Z,18.27
2019-02-19T16:07:00.221Z,14.87
2019-02-19T16:12:14.984Z,16.90
2019-02-19T16:17:25.299Z,15.00
2019-02-19T16:22:42.720Z,14.13
2019-02-19T16:27:57.967Z,19.17
2019-02-19T16:33:07.357Z,37.53
2019-02-19T16:38:16.176Z,25.47
2019-02-19T16:43:26.690Z,49.30
2019-02-19T16:48:41.454Z,53.53
2019-02-19T16:54:08.437Z,44.40
2019-02-19T16:59:19.708Z,62.27
2019-02-19T17:04:24.749Z,51.77
2019-02-19T17:09:31.455Z,32.03
2019-02-19T17:15:04.270Z,34.17
2019-02-19T17:20:28.802Z,27.90
2019-02-19T17:25:46.299Z,25.10
2019-02-19T17:31:10.822Z,54.83
2019-02-19T17:36:13.899Z,32.87
2019-02-19T17:41:36.319Z,23.30
2019-02-19T17:46:43.353Z,25.73
2019-02-19T17:51:57.065Z,31.87
2019-02-19T17:57:24.331Z,40.67
2019-02-19T18:02:44.390Z,56.87
2019-02-19T18:07:59.427Z,67.10
2019-02-19T18:13:32.971Z,146.00
2019-02-19T18:18:47.531Z,38.00
2019-02-19T18:23:44.965Z,56.07
2019-02-19T18:28:42.257Z,52.70
2019-02-19T18:33:39.246Z,40.20
2019-02-19T18:38:36.914Z,37.57
2019-02-19T18:43:36.547Z,32.43
2019-02-19T18:48:33.530Z,44.47
2019-02-19T18:53:30.990Z,61.67
2019-02-19T18:58:26.957Z,41.67
2019-02-19T19:03:22.962Z,25.67
2019-02-19T19:08:22.956Z,49.77
2019-02-19T19:13:18.821Z,34.03
2019-02-19T19:18:14.713Z,34.20
2019-02-19T19:23:10.588Z,33.80
2019-02-19T19:28:07.503Z,31.70
2019-02-19T19:33:03.336Z,42.13
2019-02-19T19:37:59.115Z,42.33
2019-02-19T19:42:54.904Z,47.43
2019-02-19T19:47:50.654Z,49.23
2019-02-19T19:52:47.188Z,50.40
2019-02-19T19:57:43.142Z,54.50
2019-02-19T20:02:41.922Z,64.20
2019-02-19T20:07:38.866Z,64.27
2019-02-19T20:12:36.030Z,66.33
2019-02-19T20:17:31.987Z,44.97
2019-02-19T20:22:27.917Z,71.43
2019-02-19T20:27:24.289Z,60.13
2019-02-19T20:32:20.260Z,58.53
2019-02-19T20:37:17.136Z,57.20
2019-02-19T20:42:15.201Z,59.03
2019-02-19T20:47:12.484Z,65.00
2019-02-19T20:52:08.530Z,52.90
2019-02-19T20:57:04.709Z,55.10
2019-02-19T21:02:01.579Z,61.37
2019-02-19T21:06:58.543Z,51.40
2019-02-19T21:12:01.060Z,44.17
2019-02-19T21:17:00.142Z,39.40
2019-02-19T21:21:56.348Z,64.53
2019-02-19T21:26:52.350Z,47.27
2019-02-19T21:31:48.735Z,43.03
2019-02-19T21:36:44.736Z,38.60
2019-02-19T21:41:42.794Z,38.50
2019-02-19T21:46:41.395Z,41.10
2019-02-19T21:51:37.849Z,39.70
2019-02-19T21:56:34.842Z,36.77
2019-02-19T22:01:30.686Z,32.27
2019-02-19T22:06:29.747Z,35.67
2019-02-19T22:11:25.461Z,36.07
2019-02-19T22:16:21.244Z,32.63
2019-02-19T22:21:38.924Z,35.33
2019-02-19T22:26:34.575Z,35.20
2019-02-19T22:31:31.412Z,38.37
2019-02-19T22:36:27.235Z,38.97
2019-02-19T22:41:25.416Z,35.50
2019-02-19T22:46:21.214Z,38.23
2019-02-19T22:51:17.080Z,33.20
2019-02-19T22:56:17.760Z,39.50
2019-02-19T23:01:23.332Z,28.87
2019-02-19T23:06:20.312Z,30.77
2019-02-19T23:11:16.271Z,32.67
2019-02-19T23:16:12.037Z,33.30
2019-02-19T23:21:07.785Z,29.40
2019-02-19T23:26:07.563Z,33.93
2019-02-19T23:31:03.487Z,31.77
2019-02-19T23:36:04.327Z,29.03
2019-02-19T23:41:00.561Z,30.33
2019-02-19T23:45:58.499Z,31.30
2019-02-19T23:50:54.319Z,29.37
2019-02-19T23:55:50.027Z,30.30
